Time;durP1;ratioP1;P1;durP2;ratioP2;P2;SDS_P1;SDS_P2;PMS_P1;PMS_P2;Temp;Humidity;BMP_temperature;BMP_pressure;BME280_temperature;BME280_humidity;BME280_pressure;Samples;Min_cycle;Max_cycle;Signal;HPM_P1;HPM_P2
2022/12/26 00:01:25;;;;;;;;;;;7.70;99.90;;;;;;4927557;29;20405;-80
2022/12/26 00:03:52;;;;;;;;;;;7.70;99.90;;;;;;4928200;29;19935;-80
2022/12/26 00:06:21;;;;;;;;;;;7.70;99.90;;;;;;4924288;29;19957;-81
2022/12/26 00:08:48;;;;;;;;;;;7.70;99.90;;;;;;4930721;29;19970;-81
2022/12/26 00:11:16;;;;;;;;;;;7.70;99.90;;;;;;4934682;29;20424;-80
2022/12/26 00:13:43;;;;;;;;;;;7.60;99.90;;;;;;4917180;29;20025;-81
2022/12/26 00:16:11;;;;;;;;;;;7.60;99.90;;;;;;4926302;29;19974;-82
2022/12/26 00:18:38;;;;;;;;;;;7.70;99.90;;;;;;4921159;29;19934;-81
2022/12/26 00:21:05;;;;;;;;;;;7.70;99.90;;;;;;4927607;29;20782;-80
2022/12/26 00:23:34;;;;;;;;;;;7.60;99.90;;;;;;4929665;29;19927;-80
2022/12/26 00:26:04;;;;;;;;;;;7.60;99.90;;;;;;4930610;29;19926;-81
2022/12/26 00:28:31;;;;;;;;;;;7.60;99.90;;;;;;4927320;29;19994;-82
2022/12/26 00:30:58;;;;;;;;;;;7.60;99.90;;;;;;4928039;29;20369;-80
2022/12/26 00:33:24;;;;;;;;;;;7.60;99.90;;;;;;4930949;29;19927;-80
2022/12/26 00:35:52;;;;;;;;;;;7.60;99.90;;;;;;4926076;29;19938;-80
2022/12/26 00:38:19;;;;;;;;;;;7.60;99.90;;;;;;4930865;29;19926;-80
2022/12/26 00:40:47;;;;;;;;;;;7.60;99.90;;;;;;4936048;29;19926;-79
2022/12/26 00:43:16;;;;;;;;;;;7.60;99.90;;;;;;4930427;29;19935;-81
2022/12/26 00:45:44;;;;;;;;;;;7.60;99.90;;;;;;4908217;29;19934;-82
2022/12/26 00:48:11;;;;;;;;;;;7.50;99.90;;;;;;4932981;29;20635;-80
2022/12/26 00:50:38;;;;;;;;;;;7.50;99.90;;;;;;4932676;29;20017;-80
2022/12/26 00:53:05;;;;;;;;;;;7.50;99.90;;;;;;4929832;29;19938;-80
2022/12/26 00:55:31;;;;;;;;;;;7.50;99.90;;;;;;4933467;28;20398;-78
2022/12/26 00:58:00;;;;;;;;;;;7.50;99.90;;;;;;4930940;29;19934;-80
2022/12/26 01:00:26;;;;;;;;;;;7.50;99.90;;;;;;4921585;29;20614;-82
2022/12/26 01:02:55;;;;;;;;;;;7.50;99.90;;;;;;4925374;29;20220;-80
2022/12/26 01:05:22;;;;;;;;;;;7.50;99.90;;;;;;4931090;28;20361;-82
2022/12/26 01:07:49;;;;;;;;;;;7.50;99.90;;;;;;4933040;29;19934;-80
2022/12/26 01:10:16;;;;;;;;;;;7.50;99.90;;;;;;4924352;29;20119;-81
2022/12/26 01:12:43;;;;;;;;;;;7.50;99.90;;;;;;4926344;29;19931;-80
2022/12/26 01:15:11;;;;;;;;;;;7.50;99.90;;;;;;4928779;29;19926;-80
2022/12/26 01:17:38;;;;;;;;;;;7.50;99.90;;;;;;4928482;29;19946;-80
2022/12/26 01:20:05;;;;;;;;;;;7.50;99.90;;;;;;4929547;29;20160;-80
2022/12/26 01:22:32;;;;;;;;;;;7.50;99.90;;;;;;4929419;29;19953;-80
2022/12/26 01:24:59;;;;;;;;;;;7.50;99.90;;;;;;4923894;29;20129;-80
2022/12/26 01:27:26;;;;;;;;;;;7.50;99.90;;;;;;4927076;29;19934;-80
2022/12/26 01:29:53;;;;;;;;;;;7.40;99.90;;;;;;4929099;29;20779;-80
2022/12/26 01:32:21;;;;;;;;;;;7.40;99.90;;;;;;4931403;29;19945;-80
2022/12/26 01:34:48;;;;;;;;;;;7.40;99.90;;;;;;4928016;28;19942;-79
2022/12/26 01:37:16;;;;;;;;;;;7.40;99.90;;;;;;4925237;29;19931;-81
2022/12/26 01:39:43;;;;;;;;;;;7.40;99.90;;;;;;4930301;29;19934;-80
2022/12/26 01:42:13;;;;;;;;;;;7.40;99.90;;;;;;4929789;29;20018;-80
2022/12/26 01:44:56;;;;;;;;;;;7.40;99.90;;;;;;4924914;29;19927;-80
2022/12/26 01:47:25;;;;;;;;;;;7.40;99.90;;;;;;4924229;29;19942;-80
2022/12/26 01:49:53;;;;;;;;;;;7.40;99.90;;;;;;4933402;29;19937;-80
2022/12/26 01:52:23;;;;;;;;;;;7.40;99.90;;;;;;4923462;29;20025;-80
2022/12/26 01:54:51;;;;;;;;;;;7.40;99.90;;;;;;4927851;29;19989;-80
2022/12/26 01:57:20;;;;;;;;;;;7.40;99.90;;;;;;4929065;29;19982;-81
2022/12/26 01:59:47;;;;;;;;;;;7.40;99.90;;;;;;4928500;29;20457;-81
2022/12/26 02:02:15;;;;;;;;;;;7.30;99.90;;;;;;4922746;29;19933;-80
2022/12/26 02:07:30;;;;;;;;;;;7.40;99.90;;;;;;4931301;29;20401;-82
2022/12/26 02:09:56;;;;;;;;;;;7.40;99.90;;;;;;4930086;29;20506;-82
2022/12/26 02:12:24;;;;;;;;;;;7.40;99.90;;;;;;4928874;29;20021;-82
2022/12/26 02:14:51;;;;;;;;;;;7.40;99.90;;;;;;4924874;29;19930;-81
2022/12/26 02:17:18;;;;;;;;;;;7.40;99.90;;;;;;4926227;29;20089;-80
2022/12/26 02:19:50;;;;;;;;;;;7.40;99.90;;;;;;4926675;29;20025;-80
2022/12/26 02:22:34;;;;;;;;;;;7.40;99.90;;;;;;4928213;29;20053;-81
2022/12/26 02:25:08;;;;;;;;;;;7.30;99.90;;;;;;4926077;29;19982;-82
2022/12/26 02:27:43;;;;;;;;;;;7.30;99.90;;;;;;4929772;29;19987;-80
2022/12/26 02:30:34;;;;;;;;;;;7.40;99.90;;;;;;4929964;29;19935;-80
2022/12/26 02:33:08;;;;;;;;;;;7.30;99.90;;;;;;4914860;29;19938;-81
2022/12/26 02:35:42;;;;;;;;;;;7.30;99.90;;;;;;4928099;29;19966;-81
2022/12/26 02:38:16;;;;;;;;;;;7.30;99.90;;;;;;4929335;29;20018;-83
2022/12/26 02:40:47;;;;;;;;;;;7.30;99.90;;;;;;4926637;29;19939;-81
2022/12/26 02:43:18;;;;;;;;;;;7.30;99.90;;;;;;4927193;29;20274;-80
2022/12/26 02:48:43;;;;;;;;;;;7.30;99.90;;;;;;4930593;29;19960;-81
2022/12/26 03:13:35;;;;;;;;;;;7.30;99.90;;;;;;4932565;29;19935;-81
2022/12/26 03:18:50;;;;;;;;;;;7.30;99.90;;;;;;4929346;29;19927;-81
2022/12/26 03:21:20;;;;;;;;;;;7.30;99.90;;;;;;4949908;29;19937;-81
2022/12/26 03:23:47;;;;;;;;;;;7.20;99.90;;;;;;4948660;29;19915;-82
2022/12/26 03:31:40;;;;;;;;;;;7.20;99.90;;;;;;4930444;29;20308;-81
2022/12/26 03:34:19;;;;;;;;;;;7.20;99.90;;;;;;4937204;29;19941;-81
2022/12/26 03:37:08;;;;;;;;;;;7.20;99.90;;;;;;4933691;29;19926;-81
2022/12/26 04:44:08;;;;;;;;;;;7.20;99.90;;;;;;4930320;29;20337;-82
2022/12/26 04:46:37;;;;;;;;;;;7.10;99.90;;;;;;4929912;29;19962;-81
2022/12/26 04:51:50;;;;;;;;;;;7.10;99.90;;;;;;4930860;29;20009;-81
2022/12/26 04:54:17;;;;;;;;;;;7.10;99.90;;;;;;4929462;29;20460;-80
2022/12/26 04:56:44;;;;;;;;;;;7.10;99.90;;;;;;4926547;29;19954;-81
2022/12/26 04:59:14;;;;;;;;;;;7.10;99.90;;;;;;4927473;29;20365;-80
2022/12/26 05:09:57;;;;;;;;;;;7.10;99.90;;;;;;4932383;29;19954;-81
2022/12/26 05:12:25;;;;;;;;;;;7.10;99.90;;;;;;4933056;28;20283;-82
2022/12/26 05:14:54;;;;;;;;;;;7.10;99.90;;;;;;4929678;29;20006;-80
2022/12/26 05:31:10;;;;;;;;;;;7.10;99.90;;;;;;4931765;29;19923;-81
2022/12/26 05:36:22;;;;;;;;;;;7.10;99.90;;;;;;4928753;29;20372;-81
2022/12/26 05:38:50;;;;;;;;;;;7.10;99.90;;;;;;4914057;29;19927;-81
2022/12/26 05:41:17;;;;;;;;;;;7.10;99.90;;;;;;4933220;29;20274;-81
2022/12/26 05:43:44;;;;;;;;;;;7.10;99.90;;;;;;4926647;29;19934;-82
2022/12/26 05:46:12;;;;;;;;;;;7.10;99.90;;;;;;4929507;29;20026;-81
2022/12/26 05:48:39;;;;;;;;;;;7.10;99.90;;;;;;4933203;29;19994;-82
2022/12/26 05:51:08;;;;;;;;;;;7.10;99.90;;;;;;4926028;29;20227;-81
2022/12/26 05:53:35;;;;;;;;;;;7.10;99.90;;;;;;4929571;29;19994;-81
2022/12/26 05:56:02;;;;;;;;;;;7.10;99.90;;;;;;4930168;29;20254;-82
2022/12/26 05:58:29;;;;;;;;;;;7.10;99.90;;;;;;4935078;29;19927;-81
2022/12/26 06:01:03;;;;;;;;;;;7.10;99.90;;;;;;4929997;29;20435;-81
2022/12/26 06:03:32;;;;;;;;;;;7.00;99.90;;;;;;4910972;29;19927;-82
2022/12/26 06:05:59;;;;;;;;;;;7.10;99.90;;;;;;4927612;29;20509;-81
2022/12/26 06:08:26;;;;;;;;;;;7.10;99.90;;;;;;4930871;29;19926;-81
2022/12/26 06:10:53;;;;;;;;;;;7.10;99.90;;;;;;4929275;29;20001;-81
2022/12/26 06:13:20;;;;;;;;;;;7.10;99.90;;;;;;4927121;29;19930;-81
2022/12/26 06:15:46;;;;;;;;;;;7.10;99.90;;;;;;4925010;29;20953;-81
2022/12/26 06:18:13;;;;;;;;;;;7.10;99.90;;;;;;4927858;29;19946;-81
2022/12/26 06:20:41;;;;;;;;;;;7.10;99.90;;;;;;4939029;29;19927;-81
2022/12/26 06:23:08;;;;;;;;;;;7.00;99.90;;;;;;4925936;29;19931;-82
2022/12/26 06:25:35;;;;;;;;;;;7.10;99.90;;;;;;4923877;29;19935;-81
2022/12/26 06:28:02;;;;;;;;;;;7.00;99.90;;;;;;4928725;29;19926;-81
2022/12/26 06:30:28;;;;;;;;;;;7.00;99.90;;;;;;4930455;29;19935;-82
2022/12/26 06:32:55;;;;;;;;;;;7.10;99.90;;;;;;4928751;29;19949;-81
2022/12/26 06:35:22;;;;;;;;;;;7.00;99.90;;;;;;4931657;29;20029;-81
2022/12/26 06:37:50;;;;;;;;;;;7.10;99.90;;;;;;4932637;29;19983;-81
2022/12/26 06:40:17;;;;;;;;;;;7.10;99.90;;;;;;4927660;29;20606;-81
2022/12/26 06:42:44;;;;;;;;;;;7.00;99.90;;;;;;4926106;29;19970;-81
2022/12/26 06:45:11;;;;;;;;;;;7.10;99.90;;;;;;4935645;29;19927;-81
2022/12/26 06:47:38;;;;;;;;;;;7.10;99.90;;;;;;4929583;29;19934;-80
2022/12/26 06:50:05;;;;;;;;;;;7.10;99.90;;;;;;4928062;29;19941;-82
2022/12/26 06:52:32;;;;;;;;;;;7.10;99.90;;;;;;4926343;29;19927;-82
2022/12/26 06:55:00;;;;;;;;;;;7.10;99.90;;;;;;4929875;29;19973;-80
2022/12/26 06:57:27;;;;;;;;;;;7.10;99.90;;;;;;4910247;29;19931;-82
2022/12/26 06:59:54;;;;;;;;;;;7.10;99.90;;;;;;4935392;29;19982;-81
2022/12/26 07:02:21;;;;;;;;;;;7.10;99.90;;;;;;4937095;29;19934;-79
2022/12/26 07:04:47;;;;;;;;;;;7.10;99.90;;;;;;4938431;29;19958;-81
2022/12/26 07:07:14;;;;;;;;;;;7.10;99.90;;;;;;4933703;29;19935;-81
2022/12/26 07:09:41;;;;;;;;;;;7.10;99.90;;;;;;4930661;29;19941;-82
2022/12/26 07:12:09;;;;;;;;;;;7.10;99.90;;;;;;4927658;29;19998;-81
2022/12/26 07:14:36;;;;;;;;;;;7.10;99.90;;;;;;4932470;29;19954;-81
2022/12/26 07:17:03;;;;;;;;;;;7.10;99.90;;;;;;4923142;29;19941;-81
2022/12/26 07:19:30;;;;;;;;;;;7.10;99.90;;;;;;4934757;29;19927;-80
2022/12/26 07:21:56;;;;;;;;;;;7.10;99.90;;;;;;4925204;29;19927;-81
2022/12/26 07:24:23;;;;;;;;;;;7.10;99.90;;;;;;4929704;29;19931;-80
2022/12/26 07:26:50;;;;;;;;;;;7.10;99.90;;;;;;4928665;29;20390;-79
2022/12/26 07:29:18;;;;;;;;;;;7.10;99.90;;;;;;4933648;29;19954;-79
2022/12/26 07:31:47;;;;;;;;;;;7.10;99.90;;;;;;4924949;29;19973;-81
2022/12/26 07:34:14;;;;;;;;;;;7.20;99.90;;;;;;4930461;29;19994;-81
2022/12/26 07:36:41;;;;;;;;;;;7.20;99.90;;;;;;4929491;29;19970;-81
2022/12/26 07:39:08;;;;;;;;;;;7.20;99.90;;;;;;4931536;29;20365;-81
2022/12/26 07:44:21;;;;;;;;;;;7.20;99.90;;;;;;4936903;28;19929;-82
2022/12/26 07:46:48;;;;;;;;;;;7.20;99.90;;;;;;4930912;29;19927;-80
2022/12/26 07:49:15;;;;;;;;;;;7.20;99.90;;;;;;4929606;29;20006;-81
2022/12/26 07:51:42;;;;;;;;;;;7.20;99.90;;;;;;4937801;29;22488;-81
2022/12/26 07:54:09;;;;;;;;;;;7.20;99.90;;;;;;4931566;29;19981;-81
2022/12/26 07:56:36;;;;;;;;;;;7.20;99.90;;;;;;4925531;29;20776;-82
2022/12/26 07:59:03;;;;;;;;;;;7.20;99.90;;;;;;4926958;29;19982;-81
2022/12/26 08:01:31;;;;;;;;;;;7.20;99.90;;;;;;4938389;29;19950;-78
2022/12/26 08:03:58;;;;;;;;;;;7.20;99.90;;;;;;4932893;28;19935;-80
2022/12/26 08:06:25;;;;;;;;;;;7.20;99.90;;;;;;4919467;29;19993;-80
2022/12/26 08:08:52;;;;;;;;;;;7.20;99.90;;;;;;4941183;29;21421;-81
2022/12/26 08:11:20;;;;;;;;;;;7.20;99.90;;;;;;4936620;29;20022;-80
2022/12/26 08:13:47;;;;;;;;;;;7.30;99.90;;;;;;4931843;29;19938;-79
2022/12/26 08:16:15;;;;;;;;;;;7.30;99.90;;;;;;4931526;29;19939;-86
2022/12/26 08:18:43;;;;;;;;;;;7.30;99.90;;;;;;4934006;29;19938;-79
2022/12/26 08:21:11;;;;;;;;;;;7.30;99.90;;;;;;4935132;29;19994;-79
2022/12/26 08:23:37;;;;;;;;;;;7.30;99.90;;;;;;4935281;29;19927;-78
2022/12/26 08:26:05;;;;;;;;;;;7.40;99.90;;;;;;4939482;29;20387;-78
2022/12/26 08:28:32;;;;;;;;;;;7.40;99.90;;;;;;4931408;29;20286;-79
2022/12/26 08:30:59;;;;;;;;;;;7.40;99.90;;;;;;4930637;29;20442;-78
2022/12/26 08:33:26;;;;;;;;;;;7.40;99.90;;;;;;4925784;29;20025;-78
2022/12/26 08:35:54;;;;;;;;;;;7.40;99.90;;;;;;4922357;29;19941;-79
2022/12/26 08:38:21;;;;;;;;;;;7.40;99.90;;;;;;4929659;29;19989;-79
2022/12/26 08:40:54;;;;;;;;;;;7.40;99.90;;;;;;4910921;29;20018;-79
2022/12/26 08:43:21;;;;;;;;;;;7.50;99.90;;;;;;4934077;29;19935;-79
2022/12/26 08:45:49;;;;;;;;;;;7.40;99.90;;;;;;4929742;29;19926;-79
2022/12/26 08:48:15;;;;;;;;;;;7.50;99.90;;;;;;4932479;29;19961;-79
2022/12/26 08:50:42;;;;;;;;;;;7.50;99.90;;;;;;4933249;29;19931;-78
2022/12/26 08:53:11;;;;;;;;;;;7.50;99.90;;;;;;4931383;29;20381;-79
2022/12/26 08:55:37;;;;;;;;;;;7.50;99.90;;;;;;4924565;29;20361;-81
2022/12/26 08:58:04;;;;;;;;;;;7.60;99.90;;;;;;4929293;29;19934;-79
2022/12/26 09:00:31;;;;;;;;;;;7.50;99.90;;;;;;4923703;29;19941;-78
2022/12/26 09:02:58;;;;;;;;;;;7.60;99.90;;;;;;4906917;29;19953;-78
2022/12/26 09:05:24;;;;;;;;;;;7.60;99.90;;;;;;4920213;29;19935;-78
2022/12/26 09:07:51;;;;;;;;;;;7.60;99.90;;;;;;4915297;29;19990;-78
2022/12/26 09:10:24;;;;;;;;;;;7.60;99.90;;;;;;4917706;29;19937;-78
2022/12/26 09:12:51;;;;;;;;;;;7.60;99.90;;;;;;4922295;29;19966;-79
2022/12/26 09:15:18;;;;;;;;;;;7.60;99.90;;;;;;4921539;29;19978;-82
2022/12/26 09:17:45;;;;;;;;;;;7.70;99.90;;;;;;4926411;29;20134;-79
2022/12/26 09:20:12;;;;;;;;;;;7.70;99.90;;;;;;4926540;29;19934;-83
2022/12/26 09:22:50;;;;;;;;;;;7.70;99.90;;;;;;4908638;29;19927;-80
2022/12/26 09:25:17;;;;;;;;;;;7.80;99.90;;;;;;4913522;29;20019;-78
2022/12/26 09:27:46;;;;;;;;;;;7.70;99.90;;;;;;4923847;29;19953;-80
2022/12/26 09:30:13;;;;;;;;;;;7.80;99.90;;;;;;4924274;29;19995;-79
2022/12/26 09:32:40;;;;;;;;;;;7.80;99.90;;;;;;4922654;29;19974;-83
2022/12/26 09:35:07;;;;;;;;;;;7.80;99.90;;;;;;4926494;29;19934;-78
2022/12/26 09:37:34;;;;;;;;;;;7.80;99.90;;;;;;4930462;29;19927;-80
2022/12/26 09:40:03;;;;;;;;;;;7.80;99.90;;;;;;4931096;29;19935;-80
2022/12/26 09:42:33;;;;;;;;;;;7.80;99.90;;;;;;4911215;29;19978;-81
2022/12/26 09:45:04;;;;;;;;;;;7.80;99.90;;;;;;4928807;29;20068;-80
2022/12/26 09:47:33;;;;;;;;;;;7.90;99.90;;;;;;4931354;29;19927;-79
2022/12/26 09:50:05;;;;;;;;;;;7.90;99.90;;;;;;4930965;29;19977;-78
2022/12/26 09:52:39;;;;;;;;;;;7.90;99.90;;;;;;4921447;29;19934;-80
2022/12/26 09:55:10;;;;;;;;;;;7.90;99.90;;;;;;4916353;29;19930;-79
2022/12/26 09:57:40;;;;;;;;;;;7.90;99.90;;;;;;4924544;28;20065;-78
2022/12/26 10:00:22;;;;;;;;;;;7.90;99.90;;;;;;4920962;29;19934;-79
2022/12/26 10:02:51;;;;;;;;;;;8.00;99.90;;;;;;4927177;29;19937;-79
2022/12/26 10:05:19;;;;;;;;;;;8.00;99.90;;;;;;4917192;29;19935;-80
2022/12/26 10:07:48;;;;;;;;;;;8.00;99.90;;;;;;4906022;29;19930;-78
2022/12/26 10:10:18;;;;;;;;;;;8.00;99.90;;;;;;4921518;29;19935;-78
2022/12/26 10:12:50;;;;;;;;;;;8.00;99.90;;;;;;4924652;29;19986;-78
2022/12/26 10:15:29;;;;;;;;;;;8.10;99.90;;;;;;4925044;29;20091;-79
2022/12/26 10:17:59;;;;;;;;;;;8.10;99.90;;;;;;4925112;29;20385;-78
2022/12/26 10:20:38;;;;;;;;;;;8.10;99.90;;;;;;4922114;29;20881;-79
2022/12/26 10:23:25;;;;;;;;;;;8.10;99.90;;;;;;4924531;29;19938;-78
2022/12/26 10:25:55;;;;;;;;;;;8.10;99.90;;;;;;4920856;29;19927;-78
2022/12/26 10:28:27;;;;;;;;;;;8.10;99.90;;;;;;4919266;29;19927;-78
2022/12/26 10:30:57;;;;;;;;;;;8.10;99.90;;;;;;4926348;29;20453;-80
2022/12/26 10:33:30;;;;;;;;;;;8.10;99.90;;;;;;4927876;29;20286;-79
2022/12/26 10:35:57;;;;;;;;;;;8.20;99.90;;;;;;4921617;29;20319;-79
2022/12/26 10:38:27;;;;;;;;;;;8.20;99.90;;;;;;4915654;29;19931;-79
2022/12/26 10:40:56;;;;;;;;;;;8.20;99.90;;;;;;4924503;29;19927;-79
2022/12/26 10:43:27;;;;;;;;;;;8.20;99.90;;;;;;4925756;29;19930;-79
2022/12/26 10:46:02;;;;;;;;;;;8.20;99.90;;;;;;4935785;29;20239;-79
2022/12/26 10:48:29;;;;;;;;;;;8.20;99.90;;;;;;4928697;29;20385;-81
2022/12/26 10:50:56;;;;;;;;;;;8.20;99.90;;;;;;4945679;29;19970;-78
2022/12/26 10:53:23;;;;;;;;;;;8.20;99.90;;;;;;4935338;29;21088;-79
2022/12/26 10:55:49;;;;;;;;;;;8.30;99.90;;;;;;4919061;29;19958;-79
2022/12/26 10:58:18;;;;;;;;;;;8.20;99.90;;;;;;4928092;29;19978;-78
2022/12/26 11:00:45;;;;;;;;;;;8.30;99.90;;;;;;4922803;29;19974;-79
2022/12/26 11:03:14;;;;;;;;;;;8.30;99.90;;;;;;4925535;29;20016;-77
2022/12/26 11:05:43;;;;;;;;;;;8.30;99.90;;;;;;4923749;29;19930;-79
2022/12/26 11:08:15;;;;;;;;;;;8.30;99.90;;;;;;4924930;29;19927;-79
2022/12/26 11:10:45;;;;;;;;;;;8.30;99.90;;;;;;4927256;29;19935;-78
2022/12/26 11:13:18;;;;;;;;;;;8.30;99.90;;;;;;4923819;29;19939;-79
2022/12/26 11:15:48;;;;;;;;;;;8.30;99.90;;;;;;4928977;29;19931;-77
2022/12/26 11:18:20;;;;;;;;;;;8.30;99.90;;;;;;4933642;29;19931;-78
2022/12/26 11:20:48;;;;;;;;;;;8.30;99.90;;;;;;4924292;29;19927;-78
2022/12/26 11:23:22;;;;;;;;;;;8.40;99.90;;;;;;4927275;29;19938;-78
2022/12/26 11:25:50;;;;;;;;;;;8.40;99.90;;;;;;4926333;28;19970;-78
2022/12/26 11:28:23;;;;;;;;;;;8.40;99.90;;;;;;4928689;29;19930;-77
2022/12/26 11:30:50;;;;;;;;;;;8.40;99.90;;;;;;4920848;29;19931;-80
2022/12/26 11:33:22;;;;;;;;;;;8.40;99.90;;;;;;4927776;29;19941;-78
2022/12/26 11:35:50;;;;;;;;;;;8.40;99.90;;;;;;4930926;29;20653;-77
2022/12/26 11:43:40;;;;;;;;;;;8.40;99.90;;;;;;4923969;29;19930;-77
2022/12/26 11:46:07;;;;;;;;;;;8.50;99.90;;;;;;4923584;29;19931;-77
2022/12/26 11:48:35;;;;;;;;;;;8.50;99.90;;;;;;4905770;29;19991;-79
2022/12/26 11:51:02;;;;;;;;;;;8.50;99.90;;;;;;4924734;29;19931;-79
2022/12/26 11:53:30;;;;;;;;;;;8.50;99.90;;;;;;4939244;29;19950;-80
2022/12/26 11:55:58;;;;;;;;;;;8.50;99.90;;;;;;4927008;29;20030;-78
2022/12/26 11:58:28;;;;;;;;;;;8.50;99.90;;;;;;4923637;29;19946;-78
2022/12/26 12:01:12;;;;;;;;;;;8.50;99.90;;;;;;4926169;29;20410;-77
2022/12/26 12:03:41;;;;;;;;;;;8.50;99.90;;;;;;4928308;29;20021;-78
2022/12/26 12:06:27;;;;;;;;;;;8.50;99.90;;;;;;4927075;29;19934;-75
2022/12/26 12:08:58;;;;;;;;;;;8.60;99.90;;;;;;4928227;29;19935;-77
2022/12/26 12:11:27;;;;;;;;;;;8.60;99.90;;;;;;4921618;29;20250;-77
2022/12/26 12:14:00;;;;;;;;;;;8.60;99.90;;;;;;4926809;29;20338;-77
2022/12/26 12:16:45;;;;;;;;;;;8.60;99.90;;;;;;4927195;29;19990;-78
2022/12/26 12:19:27;;;;;;;;;;;8.60;99.90;;;;;;4924693;29;20077;-77
2022/12/26 12:22:02;;;;;;;;;;;8.60;99.90;;;;;;4928483;29;19935;-77
2022/12/26 12:24:43;;;;;;;;;;;8.60;99.90;;;;;;4929631;29;19962;-79
2022/12/26 12:27:14;;;;;;;;;;;8.60;99.90;;;;;;4920185;29;19970;-78
2022/12/26 12:29:51;;;;;;;;;;;8.60;99.90;;;;;;4937620;29;19927;-79
2022/12/26 12:32:24;;;;;;;;;;;8.60;99.90;;;;;;4928406;29;19930;-79
2022/12/26 12:35:00;;;;;;;;;;;8.60;99.90;;;;;;4924511;28;20029;-78
2022/12/26 12:37:33;;;;;;;;;;;8.60;99.90;;;;;;4925244;29;20142;-79
2022/12/26 12:40:02;;;;;;;;;;;8.60;99.90;;;;;;4921195;29;19954;-80
2022/12/26 12:42:35;;;;;;;;;;;8.60;99.90;;;;;;4924128;29;20458;-78
2022/12/26 12:45:17;;;;;;;;;;;8.60;99.90;;;;;;4928694;29;19937;-78
2022/12/26 12:47:52;;;;;;;;;;;8.60;99.90;;;;;;4931435;29;19990;-78
2022/12/26 12:50:23;;;;;;;;;;;8.60;99.90;;;;;;4918853;29;19942;-79
2022/12/26 12:52:55;;;;;;;;;;;8.60;99.90;;;;;;4922932;29;19930;-77
2022/12/26 12:55:26;;;;;;;;;;;8.70;99.90;;;;;;4923476;29;19942;-76
2022/12/26 12:57:56;;;;;;;;;;;8.70;99.90;;;;;;4928377;29;20033;-85
2022/12/26 13:00:24;;;;;;;;;;;8.70;99.90;;;;;;4927065;29;20061;-87
2022/12/26 13:02:53;;;;;;;;;;;8.70;99.90;;;;;;4903678;29;20427;-89
2022/12/26 13:05:35;;;;;;;;;;;8.70;99.90;;;;;;4925192;29;19935;-82
2022/12/26 13:08:06;;;;;;;;;;;8.60;99.90;;;;;;4928681;29;19973;-88
2022/12/26 13:10:35;;;;;;;;;;;8.70;99.90;;;;;;4920541;29;20294;-87
2022/12/26 13:13:09;;;;;;;;;;;8.70;99.90;;;;;;4929968;29;19930;-85
2022/12/26 13:15:39;;;;;;;;;;;8.70;99.90;;;;;;4926785;29;19934;-86
2022/12/26 13:18:10;;;;;;;;;;;8.70;99.90;;;;;;4935607;29;19989;-88
2022/12/26 13:20:41;;;;;;;;;;;8.70;99.90;;;;;;4934527;29;19931;-85
2022/12/26 13:26:04;;;;;;;;;;;8.70;99.90;;;;;;4932111;29;19946;-92
2022/12/26 13:28:34;;;;;;;;;;;8.70;99.90;;;;;;4931867;29;19939;-83
2022/12/26 13:31:04;;;;;;;;;;;8.70;99.90;;;;;;4933786;29;19955;-88
2022/12/26 13:33:32;;;;;;;;;;;8.70;99.90;;;;;;4935001;29;20021;-87
2022/12/26 13:36:01;;;;;;;;;;;8.70;99.90;;;;;;4924045;29;20318;-87
2022/12/26 13:38:43;;;;;;;;;;;8.70;99.90;;;;;;4931872;29;20305;-86
2022/12/26 13:44:00;;;;;;;;;;;8.70;99.90;;;;;;4927102;29;20082;-89
2022/12/26 13:46:41;;;;;;;;;;;8.70;99.90;;;;;;4927414;29;19935;-87
2022/12/26 13:49:23;;;;;;;;;;;8.70;99.90;;;;;;4929744;29;19933;-89
2022/12/26 13:51:52;;;;;;;;;;;8.70;99.90;;;;;;4935422;29;19931;-88
2022/12/26 13:54:20;;;;;;;;;;;8.60;99.90;;;;;;4928933;29;19927;-89
2022/12/26 13:57:14;;;;;;;;;;;8.70;99.90;;;;;;4922866;29;19934;-88
2022/12/26 13:59:44;;;;;;;;;;;8.70;99.90;;;;;;4932142;29;19927;-86
2022/12/26 14:02:20;;;;;;;;;;;8.70;99.90;;;;;;4923920;29;19926;-86
2022/12/26 14:04:52;;;;;;;;;;;8.70;99.90;;;;;;4926161;29;20161;-89
2022/12/26 14:07:24;;;;;;;;;;;8.70;99.90;;;;;;4931192;29;19935;-90
2022/12/26 14:09:57;;;;;;;;;;;8.70;99.90;;;;;;4924300;29;19937;-90
2022/12/26 14:12:43;;;;;;;;;;;8.70;99.90;;;;;;4939751;29;20405;-90
2022/12/26 14:15:29;;;;;;;;;;;8.70;99.90;;;;;;4925736;29;19962;-94
2022/12/26 14:18:01;;;;;;;;;;;8.70;99.90;;;;;;4922985;29;19931;-93
2022/12/26 14:20:35;;;;;;;;;;;8.70;99.90;;;;;;4925319;29;19962;-94
2022/12/26 14:23:12;;;;;;;;;;;8.70;99.90;;;;;;4931213;29;19943;-89
2022/12/26 14:25:48;;;;;;;;;;;8.70;99.90;;;;;;4927341;29;19931;-92
2022/12/26 14:28:19;;;;;;;;;;;8.70;99.90;;;;;;4931334;29;20381;-87
2022/12/26 14:30:53;;;;;;;;;;;8.70;99.90;;;;;;4931609;29;20351;-92
2022/12/26 14:33:24;;;;;;;;;;;8.70;99.90;;;;;;4936261;29;19938;-85
2022/12/26 14:35:59;;;;;;;;;;;8.70;99.90;;;;;;4933422;29;19961;-87
2022/12/26 14:38:37;;;;;;;;;;;8.70;99.90;;;;;;4934905;29;19931;-86
2022/12/26 14:41:05;;;;;;;;;;;8.70;99.90;;;;;;4946366;29;19927;-84
2022/12/26 14:43:33;;;;;;;;;;;8.70;99.90;;;;;;4940976;29;20016;-87
2022/12/26 14:46:00;;;;;;;;;;;8.70;99.90;;;;;;4932015;29;19937;-83
2022/12/26 14:48:44;;;;;;;;;;;8.70;99.90;;;;;;5013954;22;20404;-89
2022/12/26 14:51:28;;;;;;;;;;;8.70;99.90;;;;;;5009437;28;19925;-91
2022/12/26 14:54:32;;;;;;;;;;;8.70;99.90;;;;;;5011130;28;19925;-89
2022/12/26 14:57:22;;;;;;;;;;;8.70;99.90;;;;;;5002051;28;19934;-90
2022/12/26 15:00:11;;;;;;;;;;;8.70;99.90;;;;;;5007805;28;19932;-90
2022/12/26 15:02:41;;;;;;;;;;;8.70;99.90;;;;;;5007778;28;19926;-90
2022/12/26 15:05:10;;;;;;;;;;;8.70;99.90;;;;;;5000405;28;19925;-90
2022/12/26 15:07:55;;;;;;;;;;;8.70;99.90;;;;;;5003493;28;20384;-88
2022/12/26 15:10:51;;;;;;;;;;;8.60;99.90;;;;;;5005555;28;20392;-90
2022/12/26 15:13:42;;;;;;;;;;;8.60;99.90;;;;;;5003770;28;20352;-90
2022/12/26 15:16:16;;;;;;;;;;;8.60;99.90;;;;;;5002414;28;19926;-90
2022/12/26 15:18:51;;;;;;;;;;;8.60;99.90;;;;;;5002106;28;19995;-90
2022/12/26 15:21:25;;;;;;;;;;;8.60;99.90;;;;;;4999770;28;20036;-92
2022/12/26 15:24:10;;;;;;;;;;;8.60;99.90;;;;;;5007189;28;19925;-89
2022/12/26 15:26:51;;;;;;;;;;;8.60;99.90;;;;;;5008096;28;20012;-89
2022/12/26 15:29:28;;;;;;;;;;;8.60;99.90;;;;;;5004152;28;19933;-90
2022/12/26 15:31:59;;;;;;;;;;;8.60;99.90;;;;;;5008452;28;19925;-91
2022/12/26 15:34:39;;;;;;;;;;;8.60;99.90;;;;;;5010313;28;19937;-90
2022/12/26 15:37:08;;;;;;;;;;;8.60;99.90;;;;;;5004699;28;20054;-92
2022/12/26 15:39:39;;;;;;;;;;;8.60;99.90;;;;;;5003162;28;20404;-91
2022/12/26 15:42:16;;;;;;;;;;;8.60;99.90;;;;;;5009109;28;19926;-92
2022/12/26 15:44:47;;;;;;;;;;;8.60;99.90;;;;;;5006719;28;20273;-89
2022/12/26 15:47:18;;;;;;;;;;;8.60;99.90;;;;;;5003564;28;20357;-92
2022/12/26 15:49:49;;;;;;;;;;;8.60;99.90;;;;;;5005383;28;19933;-91
2022/12/26 15:52:20;;;;;;;;;;;8.50;99.90;;;;;;5004263;28;19930;-92
2022/12/26 15:55:05;;;;;;;;;;;8.50;99.90;;;;;;5003626;28;19930;-92
2022/12/26 15:57:36;;;;;;;;;;;8.60;99.90;;;;;;5004676;28;20451;-92
2022/12/26 16:00:17;;;;;;;;;;;8.60;99.90;;;;;;5024302;28;19933;-92
2022/12/26 16:02:46;;;;;;;;;;;8.50;99.90;;;;;;5009995;28;20426;-90
2022/12/26 16:05:25;;;;;;;;;;;8.50;99.90;;;;;;4998567;28;19926;-82
2022/12/26 16:07:53;;;;;;;;;;;8.50;99.90;;;;;;5002817;28;19926;-92
2022/12/26 16:10:27;;;;;;;;;;;8.50;99.90;;;;;;4997872;28;19969;-90
2022/12/26 16:12:57;;;;;;;;;;;8.60;99.90;;;;;;4998522;28;19972;-88
2022/12/26 16:15:26;;;;;;;;;;;8.50;99.90;;;;;;5000546;28;19933;-91
2022/12/26 16:17:53;;;;;;;;;;;8.50;99.90;;;;;;4998586;28;20340;-93
2022/12/26 16:22:42;;;;;;;;;;;8.50;99.90;;;;;;4988024;28;19991;-91
2022/12/26 16:23:11;;;;;;;;;;;8.50;99.90;;;;;;4995846;28;19933;-91
2022/12/26 16:25:37;;;;;;;;;;;8.50;99.90;;;;;;4998560;28;19936;-91
2022/12/26 16:28:08;;;;;;;;;;;8.50;99.90;;;;;;4992981;28;19933;-90
2022/12/26 16:30:37;;;;;;;;;;;8.50;99.90;;;;;;5001259;28;19929;-89
2022/12/26 16:33:04;;;;;;;;;;;8.50;99.90;;;;;;4990611;28;19941;-91
2022/12/26 16:35:32;;;;;;;;;;;8.50;99.90;;;;;;4999181;28;19940;-91
2022/12/26 16:38:02;;;;;;;;;;;8.50;99.90;;;;;;4991214;28;19933;-91
2022/12/26 16:40:30;;;;;;;;;;;8.50;99.90;;;;;;4990309;28;20387;-92
2022/12/26 16:42:59;;;;;;;;;;;8.50;99.90;;;;;;4998649;28;19945;-91
2022/12/26 16:45:30;;;;;;;;;;;8.50;99.90;;;;;;4993698;28;20053;-92
2022/12/26 16:48:02;;;;;;;;;;;8.50;99.90;;;;;;4995096;28;19930;-88
2022/12/26 16:50:31;;;;;;;;;;;8.50;99.90;;;;;;5004429;28;19937;-92
2022/12/26 16:53:10;;;;;;;;;;;8.50;99.90;;;;;;4993195;28;19925;-93
2022/12/26 16:55:40;;;;;;;;;;;8.50;99.90;;;;;;4999147;28;20439;-90
2022/12/26 16:58:16;;;;;;;;;;;8.50;99.90;;;;;;4991093;28;20303;-92
2022/12/26 17:01:04;;;;;;;;;;;8.50;99.90;;;;;;4994158;28;19953;-92
2022/12/26 17:03:38;;;;;;;;;;;8.50;99.90;;;;;;4994045;28;19925;-91
2022/12/26 17:06:06;;;;;;;;;;;8.50;99.90;;;;;;4992239;28;19969;-91
2022/12/26 17:08:33;;;;;;;;;;;8.50;99.90;;;;;;4993088;28;19930;-90
2022/12/26 17:11:00;;;;;;;;;;;8.40;99.90;;;;;;4994082;28;19926;-90
2022/12/26 17:13:27;;;;;;;;;;;8.50;99.90;;;;;;4990353;28;19931;-91